Aérodrome :
LOGIN :

S'inscrire | Disclaimer

   EN    FR    IT 

 










Légende :    VFR   VFR Marginal   IFR   IFR Intensif   IFR Très Intensif
Visi : 
Plafond : 
>= 8 km
>= 3000ft
5 à 8 km
1000 à 3000 ft
1500m à 5 km
500 à 1000 ft
800 à 1500m
200 à 500 ft
< 800m
< 200 ft
Symboles :   Orages  Brouillard  Fortes neiges  Fortes précipitations  Vent > 20 kt
SIGMETs :   Divers  Orages  Givrage  Turbulence  Onde Orograph.  Cendres Volcan.






- Altitude de l'aérodrome : 782 ft
- Code IATA : BGY


LIME - Orio al Serio International - Bergamo

DERNIER METAR :
  • 072220Z 03003KT 9999 FEW060 19/13 Q1018 NOSIG

METARs EXPIRÉS :
  • 072150Z 05004KT 9999 FEW060 19/14 Q1018 NOSIG
  • 072120Z 04004KT 9999 FEW060 19/13 Q1018 NOSIG
  • 072050Z 05003KT 9999 FEW060 20/14 Q1017 NOSIG
  • 072020Z 05003KT 9999 FEW060 21/13 Q1017 NOSIG
  • 071950Z 11003KT 9999 FEW060 20/13 Q1017 NOSIG

TAF TAF LIME
Valide du 07 à 18h jusqu'au 08 à 18h UTC


071700Z 0718/0818 VRB05KT 9999 FEW040
BECMG 0807/0809 11010KT
BECMG 0816/0818 VRB05KT



MET'MAP, la Météo Aéronautique d'un coup d'oeil ! - Copyright ORBIFLY Décembre 2007 - Disclaimer

ORBIFLY MET'MAP TEAM :

Programmation & Développement : Alexandra Zaïnal
Sur une idée originale de : Baudouin d'Aumeries
Assistance à la programmation : Marc-Olivier Méhu
Soutien technique & logistique : Manuel Goepfert

Contact : metmap@orbifly.com




SOURCES & CREDITS :

   NOAA